Detall de PIREP

Printer-friendly versionPDF version

[2015/04/05 07:49:00]
Flight IATA:CT1004
Pilot Number:012
Company ICAO:CAT
Aircraft Type:B463/A
PAX:100
Aircraft Registration:PAX
Departing Airport: LEDA
Destination Airport: EGLC
Alternate Airport:EGLL
Online: VATSIM
Route:ALOSU G23 GRAUS UM601 PPN UP152 BADRU UP87 MOKOR LOGAN
Flight Level:F280
No Slew and time accel
No pause
Crash detect
Detect pilot in Cockpit between each 30 and 45 minutes
07:49 Zero fuel Weight: 73357 Lbs, Fuel Weight: 20147 Lbs
07:49 VATSIM:LEDA 050730Z 22003KT 200V260 CAVOK 08/06 Q1012
07:49 VATSIM:EGLC 050720Z AUTO 00000KT 9000 SCT020/// SCT030/// BKN045/// 07/05 Q1027
07:49 EASTER CHARTER
07:50 Parking Brakes off
07:55 Take-off
07:55 Take off Weight: 93122 Lbs
07:55 Wind: 305º @ 006 Knots Heading: 311º
07:55 POS N41º 43´ 55´´ E000º 31´ 46´´
07:55 Gear Up: 156 Knots
07:55 Flaps:1 at 156 Knots
07:56 Flaps:0 at 170 Knots
08:08 TOC
08:08 Fuel Weight: 17772 Lb
08:10 Wind:046º@021 Knots Heading: 299º Ground Speed: 338 Knots Altitude 28024 ft
08:25 Wind:050º@020 Knots Heading: 329º Ground Speed: 413 Knots Altitude 28070 ft
08:40 Wind:054º@022 Knots Heading: 010º Ground Speed: 404 Knots Altitude 28143 ft
08:55 Wind:013º@035 Knots Heading: 009º Ground Speed: 377 Knots Altitude 28274 ft
09:10 Wind:008º@041 Knots Heading: 023º Ground Speed: 373 Knots Altitude 28323 ft
09:25 Wind:002º@041 Knots Heading: 023º Ground Speed: 373 Knots Altitude 28369 ft
09:38 TOD
09:38 Fuel Weight: 9006 Lb
09:40 Wind:010º@042 Knots Heading: 030º Ground Speed: 347 Knots Altitude 25551 ft
09:49 Flaps:1 at 246 Knots
09:51 Flaps:0 at 199 Knots
09:55 Wind:028º@016 Knots Heading: 292º Ground Speed: 261 Knots Altitude 6190 ft
09:58 Flaps:1 at 207 Knots
10:00 Flaps:2 at 200 Knots
10:03 Gear Down: 122 Knots
10:03 Flaps:3 at 122 Knots
10:05 Flaps:4 at 131 Knots
10:07 TouchDown:Rate -431 ft/min Speed: 129 Knots
10:07 VATSIM:EGLC 050950Z AUTO 10006KT 060V130 9999 FEW018/// BKN030/// 09/03 Q1027
10:07 Land
10:07 Wind:101º@006 Knots
10:07 Heading: 277º
10:07 Flight Duration: 02:12
10:07 Landing Weight: 80796 Lbs
10:07 POS N51º 30´ 19´´ E000º 02´ 45´´
10:09 Parking brakes on
10:09 Block to Block Duration: 02:19
10:09 Final Fuel: 7347 Lbls
10:09 Spent Fuel: 12799 Lbls
10:09 Flight Length: 756 NM
10:09 TOD Land Length: 119 NM

Exportar CSV

Powered by Drupal - Modified by Danger4k